Time;durP1;ratioP1;P1;durP2;ratioP2;P2;SDS_P1;SDS_P2;PMS_P1;PMS_P2;Temp;Humidity;BMP_temperature;BMP_pressure;BME280_temperature;BME280_humidity;BME280_pressure;Samples;Min_cycle;Max_cycle;Signal;HPM_P1;HPM_P2
2021/12/12 08:07:14;;;;;;;13.57;9.33;;;-0.30;99.90;;;;;;5153241;27;20655;-78
2021/12/12 08:09:42;;;;;;;15.33;10.07;;;0.10;99.90;;;;;;5134538;27;20443;-78
2021/12/12 08:12:11;;;;;;;15.47;9.73;;;0.10;99.90;;;;;;5152682;27;20438;-77
2021/12/12 08:14:37;;;;;;;13.77;8.40;;;0.20;99.90;;;;;;5139063;27;20438;-77
2021/12/12 08:17:04;;;;;;;12.90;8.73;;;0.30;99.90;;;;;;5152779;27;20761;-77
2021/12/12 08:19:30;;;;;;;12.40;7.80;;;0.60;99.90;;;;;;5151456;27;20271;-78
2021/12/12 08:22:02;;;;;;;15.80;9.23;;;0.70;99.90;;;;;;5152570;27;20777;-78
2021/12/12 08:24:30;;;;;;;11.73;8.10;;;1.00;99.90;;;;;;5153218;27;20434;-77
2021/12/12 08:26:57;;;;;;;12.83;8.20;;;1.20;99.90;;;;;;5153064;27;20542;-78
2021/12/12 08:29:24;;;;;;;10.20;8.17;;;1.60;99.90;;;;;;5153031;27;20396;-78
2021/12/12 08:31:49;;;;;;;9.90;7.50;;;1.80;99.90;;;;;;5152776;27;20808;-78
2021/12/12 08:34:16;;;;;;;10.67;7.37;;;2.40;99.90;;;;;;5152906;27;20430;-78
2021/12/12 08:36:46;;;;;;;8.07;6.90;;;2.30;99.90;;;;;;5152074;27;20174;-78
2021/12/12 08:39:13;;;;;;;8.00;6.80;;;2.40;99.90;;;;;;5153368;27;20407;-78
2021/12/12 08:41:40;;;;;;;7.47;6.00;;;2.50;99.90;;;;;;5153168;27;20404;-78
2021/12/12 08:44:08;;;;;;;7.70;6.07;;;2.70;99.90;;;;;;5152123;27;20456;-78
2021/12/12 08:46:34;;;;;;;8.43;6.70;;;2.80;99.90;;;;;;5153767;27;20536;-78
2021/12/12 08:49:05;;;;;;;8.20;6.63;;;2.80;99.90;;;;;;5152498;27;20533;-78
2021/12/12 08:51:36;;;;;;;6.37;5.60;;;3.00;99.90;;;;;;5154211;27;20467;-78
2021/12/12 08:54:13;;;;;;;7.30;6.13;;;3.10;99.90;;;;;;5152567;27;20432;-78
2021/12/12 08:56:43;;;;;;;6.17;5.57;;;3.40;99.90;;;;;;5152417;27;20443;-78
2021/12/12 08:59:12;;;;;;;6.10;5.50;;;3.50;99.90;;;;;;5153642;27;20404;-78
2021/12/12 09:01:39;;;;;;;5.90;5.30;;;3.60;99.90;;;;;;5151488;27;20174;-78
2021/12/12 09:04:06;;;;;;;7.83;5.67;;;3.70;99.90;;;;;;5153168;27;20198;-78
2021/12/12 09:06:48;;;;;;;6.50;5.73;;;3.80;99.90;;;;;;5153204;27;20202;-78
2021/12/12 09:09:21;;;;;;;6.27;5.63;;;3.80;99.90;;;;;;5153518;27;20181;-78
2021/12/12 09:12:04;;;;;;;7.13;5.37;;;4.20;99.90;;;;;;5151132;27;20655;-78
2021/12/12 09:14:50;;;;;;;6.47;5.47;;;4.20;99.90;;;;;;5153024;27;20221;-78
2021/12/12 09:17:30;;;;;;;25.43;16.00;;;4.10;99.90;;;;;;5146128;27;20222;-78
2021/12/12 09:20:05;;;;;;;17.23;11.20;;;4.30;99.90;;;;;;5141333;27;20182;-78
2021/12/12 09:22:42;;;;;;;28.00;15.33;;;4.00;99.90;;;;;;5141093;27;20636;-78
2021/12/12 09:25:34;;;;;;;9.63;7.20;;;4.10;99.90;;;;;;5140557;27;20194;-78
2021/12/12 09:28:07;;;;;;;53.33;25.93;;;4.10;99.90;;;;;;5140835;27;20256;-78
2021/12/12 09:30:33;;;;;;;48.60;25.77;;;4.20;99.90;;;;;;5140480;27;20163;-78
2021/12/12 09:33:20;;;;;;;17.83;10.20;;;4.20;99.90;;;;;;5140707;27;20510;-78
2021/12/12 09:35:49;;;;;;;53.20;31.27;;;4.40;99.90;;;;;;5139257;27;20233;-79
2021/12/12 09:38:30;;;;;;;28.80;19.77;;;4.40;99.90;;;;;;5141191;27;20184;-78
2021/12/12 09:41:25;;;;;;;16.67;12.80;;;4.40;99.90;;;;;;5140954;27;20510;-78
2021/12/12 09:44:00;;;;;;;13.27;11.37;;;4.50;99.90;;;;;;5125885;27;20211;-78
2021/12/12 09:47:12;;;;;;;7.80;7.00;;;5.10;99.90;;;;;;5139691;27;20693;-78
2021/12/12 09:53:19;;;;;;;6.20;5.60;;;5.00;99.90;;;;;;5139135;27;20174;-78
2021/12/12 09:56:11;;;;;;;5.43;4.77;;;5.70;99.90;;;;;;5140396;27;20190;-78
2021/12/12 09:58:37;;;;;;;6.33;4.80;;;5.70;99.90;;;;;;5154663;27;20578;-78
2021/12/12 10:01:09;;;;;;;5.57;5.07;;;5.60;99.90;;;;;;5154652;27;20184;-78
2021/12/12 10:04:08;;;;;;;5.50;5.00;;;5.70;99.90;;;;;;5148875;27;20234;-78
2021/12/12 10:06:59;;;;;;;6.63;5.40;;;6.00;99.90;;;;;;5138212;27;20210;-78
2021/12/12 10:09:42;;;;;;;4.80;4.40;;;6.10;99.90;;;;;;5139013;27;20209;-78
2021/12/12 10:12:19;;;;;;;5.37;4.87;;;6.00;99.90;;;;;;5137515;27;20689;-78
2021/12/12 10:15:22;;;;;;;5.40;4.90;;;6.10;99.90;;;;;;5136930;27;20194;-78
2021/12/12 10:17:56;;;;;;;4.97;4.40;;;6.60;99.90;;;;;;5135716;27;20210;-78
2021/12/12 10:20:25;;;;;;;4.83;4.33;;;7.00;99.90;;;;;;5137809;27;20243;-78
2021/12/12 10:23:12;;;;;;;4.90;4.47;;;7.00;99.90;;;;;;5138755;27;20210;-78
2021/12/12 10:26:05;;;;;;;4.37;3.97;;;7.20;99.90;;;;;;5139187;27;20255;-78
2021/12/12 10:29:20;;;;;;;4.17;3.87;;;7.30;99.90;;;;;;5137657;27;20533;-78
2021/12/12 10:31:52;;;;;;;4.70;4.30;;;7.40;99.90;;;;;;5134312;27;20184;-78
2021/12/12 10:34:28;;;;;;;4.00;3.70;;;7.10;99.90;;;;;;5137491;27;20269;-78
2021/12/12 10:37:09;;;;;;;4.23;3.83;;;7.00;99.90;;;;;;5137288;27;20178;-77
2021/12/12 10:39:43;;;;;;;3.73;3.43;;;7.00;99.90;;;;;;5136396;27;20171;-78
2021/12/12 10:42:16;;;;;;;3.70;3.40;;;7.10;99.90;;;;;;5136203;27;20166;-77
2021/12/12 10:44:55;;;;;;;3.80;3.50;;;7.10;99.90;;;;;;5136744;27;20755;-78
2021/12/12 10:47:37;;;;;;;3.80;3.47;;;7.00;99.90;;;;;;5137320;27;20189;-78
2021/12/12 10:50:16;;;;;;;3.80;3.50;;;6.80;99.90;;;;;;5135604;27;20235;-78
2021/12/12 10:52:50;;;;;;;3.53;3.23;;;6.90;99.90;;;;;;5137157;27;20177;-78
2021/12/12 10:55:30;;;;;;;3.60;3.30;;;6.70;99.90;;;;;;5137186;27;20194;-78
2021/12/12 10:58:23;;;;;;;3.50;3.20;;;6.50;99.90;;;;;;5136587;27;20183;-78
2021/12/12 11:00:55;;;;;;;3.53;3.23;;;6.40;99.90;;;;;;5134291;27;20546;-77
2021/12/12 11:03:30;;;;;;;3.30;3.00;;;6.30;99.90;;;;;;5135677;27;20271;-78
2021/12/12 11:06:08;;;;;;;3.10;2.87;;;6.30;99.90;;;;;;5136513;27;20208;-77
2021/12/12 11:08:57;;;;;;;3.37;3.07;;;6.20;99.90;;;;;;5135001;27;20225;-78
2021/12/12 11:11:39;;;;;;;3.27;2.97;;;6.60;99.90;;;;;;5135144;27;20174;-77
2021/12/12 11:14:32;;;;;;;3.47;3.17;;;6.20;99.90;;;;;;5134733;27;20197;-78
2021/12/12 11:17:09;;;;;;;3.07;2.77;;;6.00;99.90;;;;;;5136191;27;20174;-77
2021/12/12 11:19:48;;;;;;;3.30;3.00;;;5.80;99.90;;;;;;5136356;27;20681;-78
2021/12/12 11:22:38;;;;;;;3.27;2.97;;;5.80;99.90;;;;;;5136041;27;20182;-77
2021/12/12 11:25:37;;;;;;;2.90;2.70;;;5.70;99.90;;;;;;5136235;27;20190;-78
2021/12/12 11:28:12;;;;;;;3.73;3.07;;;5.50;99.90;;;;;;5135996;27;20197;-78
2021/12/12 11:30:46;;;;;;;3.80;3.40;;;5.30;99.90;;;;;;5134919;27;20193;-78
2021/12/12 11:33:15;;;;;;;3.30;3.00;;;5.00;99.90;;;;;;5136387;27;20170;-78
2021/12/12 11:35:43;;;;;;;8.40;7.30;;;5.00;99.90;;;;;;5134655;27;20236;-78
2021/12/12 11:38:35;;;;;;;4.60;3.50;;;4.90;99.90;;;;;;5136517;27;20173;-78
2021/12/12 11:41:15;;;;;;;20.20;13.33;;;4.90;99.90;;;;;;5134692;27;20182;-78
2021/12/12 11:43:44;;;;;;;3.27;2.90;;;4.60;99.90;;;;;;5134897;27;20197;-78
2021/12/12 11:46:35;;;;;;;5.87;4.93;;;4.40;99.90;;;;;;5136109;27;20649;-78
2021/12/12 11:49:12;;;;;;;4.00;3.40;;;4.40;99.90;;;;;;5136666;27;20203;-78
2021/12/12 11:51:51;;;;;;;5.60;3.37;;;4.50;99.90;;;;;;5141091;27;20177;-78
2021/12/12 11:54:33;;;;;;;4.63;3.60;;;4.50;99.90;;;;;;5150209;27;20187;-78
2021/12/12 11:57:11;;;;;;;3.80;3.20;;;4.50;99.90;;;;;;5148666;27;20535;-78
2021/12/12 12:00:04;;;;;;;8.43;4.90;;;4.40;99.90;;;;;;5135004;27;20628;-78
2021/12/12 12:02:50;;;;;;;6.27;4.57;;;4.10;99.90;;;;;;5135459;27;20495;-78
2021/12/12 12:05:43;;;;;;;7.60;5.40;;;4.20;99.90;;;;;;5134839;28;20211;-78
2021/12/12 12:08:39;;;;;;;7.60;5.17;;;4.20;99.90;;;;;;5135312;28;20167;-78
2021/12/12 12:11:35;;;;;;;8.47;5.00;;;4.10;99.90;;;;;;5137709;27;20171;-78
2021/12/12 12:14:11;;;;;;;9.07;6.07;;;4.30;99.90;;;;;;5138840;28;20260;-78
2021/12/12 12:16:48;;;;;;;6.33;4.70;;;4.40;99.90;;;;;;5138664;27;20495;-78
2021/12/12 12:19:35;;;;;;;6.90;5.83;;;4.30;99.90;;;;;;5139422;27;20399;-79
2021/12/12 12:22:37;;;;;;;4.80;4.20;;;4.20;99.90;;;;;;5137695;28;20266;-79
2021/12/12 12:25:28;;;;;;;4.60;4.13;;;4.10;99.90;;;;;;5106132;27;20431;-79
2021/12/12 12:28:01;;;;;;;7.83;5.63;;;4.20;99.90;;;;;;5138982;27;20490;-78
2021/12/12 12:30:45;;;;;;;5.47;3.60;;;4.30;99.90;;;;;;5137896;27;20432;-78
2021/12/12 12:33:13;;;;;;;6.60;4.47;;;4.10;99.90;;;;;;5136877;28;20403;-78
2021/12/12 12:36:03;;;;;;;4.93;3.43;;;4.20;99.90;;;;;;5136740;28;20452;-78
2021/12/12 12:38:50;;;;;;;10.50;5.83;;;4.40;99.90;;;;;;5134641;27;20412;-78
2021/12/12 12:41:53;;;;;;;3.47;3.10;;;4.60;99.90;;;;;;5135603;27;20404;-78
2021/12/12 12:44:43;;;;;;;5.90;5.07;;;4.70;99.90;;;;;;5134382;28;20934;-78
2021/12/12 12:47:40;;;;;;;3.80;3.47;;;4.90;99.90;;;;;;5135323;27;20222;-78
2021/12/12 12:50:27;;;;;;;5.13;3.87;;;5.00;99.90;;;;;;5134341;27;20271;-78
2021/12/12 12:53:11;;;;;;;4.13;3.67;;;5.30;99.90;;;;;;5136077;27;20203;-78
2021/12/12 12:55:47;;;;;;;4.97;3.77;;;5.30;99.90;;;;;;5139146;27;20196;-78
2021/12/12 12:58:18;;;;;;;6.50;4.77;;;5.20;99.90;;;;;;5137593;27;20180;-78
2021/12/12 13:00:47;;;;;;;4.70;3.77;;;5.20;99.90;;;;;;5138917;27;20507;-77
2021/12/12 13:03:48;;;;;;;11.57;8.13;;;5.10;99.90;;;;;;5138094;27;20173;-77
2021/12/12 13:06:48;;;;;;;5.60;4.37;;;5.00;99.90;;;;;;5105930;27;20551;-77
2021/12/12 13:09:21;;;;;;;4.70;4.00;;;4.70;99.90;;;;;;5138002;27;20714;-77
2021/12/12 13:12:06;;;;;;;4.70;4.20;;;4.40;99.90;;;;;;5136131;27;20177;-77
2021/12/12 13:14:51;;;;;;;3.43;3.10;;;4.40;99.90;;;;;;5136401;27;20196;-77
2021/12/12 13:17:17;;;;;;;14.63;11.33;;;4.30;99.90;;;;;;5136465;27;20181;-77
2021/12/12 13:20:14;;;;;;;9.17;7.90;;;4.20;99.90;;;;;;5138274;27;20196;-78
2021/12/12 13:23:29;;;;;;;9.17;6.67;;;4.30;99.90;;;;;;5137011;27;20209;-78
2021/12/12 13:26:11;;;;;;;5.60;4.70;;;4.40;99.90;;;;;;5087134;27;20207;-78
2021/12/12 13:28:56;;;;;;;11.80;8.03;;;4.40;99.90;;;;;;5137988;27;20172;-78
2021/12/12 13:31:27;;;;;;;5.80;4.03;;;4.40;99.90;;;;;;5137831;27;20159;-78
2021/12/12 13:34:19;;;;;;;11.40;7.50;;;4.30;99.90;;;;;;5136621;27;20175;-77
2021/12/12 13:36:56;;;;;;;5.87;4.17;;;4.20;99.90;;;;;;5138065;27;20178;-77
2021/12/12 13:39:47;;;;;;;9.10;5.90;;;4.30;99.90;;;;;;5137818;27;20647;-77
2021/12/12 13:42:23;;;;;;;26.00;13.43;;;4.40;99.90;;;;;;5138124;27;20196;-78
2021/12/12 13:45:03;;;;;;;12.93;5.87;;;4.20;99.90;;;;;;5137635;27;20198;-78
2021/12/12 13:47:50;;;;;;;8.47;6.43;;;4.40;99.90;;;;;;5144093;27;20186;-77
2021/12/12 13:50:27;;;;;;;8.83;6.57;;;4.30;99.90;;;;;;5145246;27;20238;-77
2021/12/12 13:53:22;;;;;;;8.27;5.37;;;4.30;99.90;;;;;;5145852;27;20250;-78
2021/12/12 13:56:26;;;;;;;7.80;6.13;;;4.30;99.90;;;;;;5137626;27;20188;-77
2021/12/12 13:59:04;;;;;;;7.73;5.47;;;4.20;99.90;;;;;;5137542;27;20179;-78
2021/12/12 14:01:39;;;;;;;5.70;4.00;;;4.00;99.90;;;;;;5137482;27;20273;-78
2021/12/12 14:04:17;;;;;;;8.70;6.10;;;3.80;99.90;;;;;;5137285;27;20271;-77
2021/12/12 14:06:44;;;;;;;10.00;5.63;;;3.60;99.90;;;;;;5137064;27;20207;-78
2021/12/12 14:09:17;;;;;;;7.07;5.13;;;3.60;99.90;;;;;;5137039;27;20526;-78
2021/12/12 14:11:47;;;;;;;5.73;4.47;;;3.50;99.90;;;;;;5136880;27;20432;-77
2021/12/12 14:14:35;;;;;;;20.07;8.77;;;3.50;99.90;;;;;;5135531;27;20248;-77
2021/12/12 14:17:05;;;;;;;7.37;5.13;;;3.40;99.90;;;;;;5136777;27;20171;-77
2021/12/12 14:20:00;;;;;;;7.67;5.10;;;3.40;99.90;;;;;;5135719;27;20206;-77
2021/12/12 14:22:27;;;;;;;11.67;6.43;;;3.40;99.90;;;;;;5135543;27;20413;-78
2021/12/12 14:24:57;;;;;;;11.57;5.70;;;3.40;99.90;;;;;;5135689;27;20256;-77
2021/12/12 14:27:25;;;;;;;4.77;4.03;;;3.20;99.90;;;;;;5136173;27;20179;-77
2021/12/12 14:29:51;;;;;;;5.13;3.53;;;3.30;99.90;;;;;;5136178;27;20178;-77
2021/12/12 14:32:21;;;;;;;8.40;5.40;;;3.20;99.90;;;;;;5136112;27;20413;-77
2021/12/12 14:34:57;;;;;;;6.57;4.87;;;3.30;99.90;;;;;;5134913;27;20271;-77
2021/12/12 14:37:28;;;;;;;8.50;5.37;;;3.20;99.90;;;;;;5134783;27;20805;-77
2021/12/12 14:40:10;;;;;;;8.50;7.13;;;3.30;99.90;;;;;;5136155;27;20163;-79
2021/12/12 14:42:45;;;;;;;28.47;16.43;;;3.30;99.90;;;;;;5136047;27;20170;-77
2021/12/12 14:45:21;;;;;;;82.10;39.07;;;3.40;99.90;;;;;;5134794;27;20194;-77
2021/12/12 14:47:54;;;;;;;63.50;31.57;;;3.40;99.90;;;;;;5135893;27;20942;-77
2021/12/12 14:50:28;;;;;;;25.23;14.00;;;3.40;99.90;;;;;;5134444;27;20962;-77
2021/12/12 14:53:01;;;;;;;12.73;8.50;;;3.40;99.90;;;;;;5134631;27;20174;-77
2021/12/12 14:55:55;;;;;;;16.47;4.73;;;3.40;99.90;;;;;;5134340;27;20195;-77
2021/12/12 14:58:25;;;;;;;10.37;7.47;;;3.30;99.90;;;;;;5135779;27;20436;-78
2021/12/12 15:01:03;;;;;;;5.20;4.20;;;3.20;99.90;;;;;;5135508;27;20172;-77
2021/12/12 15:03:37;;;;;;;6.37;4.03;;;3.10;99.90;;;;;;5135756;27;20167;-77
2021/12/12 15:06:07;;;;;;;5.83;4.47;;;3.10;99.90;;;;;;5135396;27;20206;-77
2021/12/12 15:08:42;;;;;;;131.50;94.07;;;3.00;99.90;;;;;;5135724;27;20159;-78
2021/12/12 15:11:28;;;;;;;81.87;49.50;;;3.00;99.90;;;;;;5135660;27;20271;-77
2021/12/12 15:13:55;;;;;;;126.87;70.17;;;2.90;99.90;;;;;;5135573;27;20380;-77
2021/12/12 15:16:32;;;;;;;16.70;11.70;;;2.90;99.90;;;;;;5134716;27;20411;-77
2021/12/12 15:19:06;;;;;;;14.83;9.57;;;3.00;99.90;;;;;;5133942;27;20198;-78
2021/12/12 15:21:35;;;;;;;16.40;12.53;;;3.00;99.90;;;;;;5135098;27;20412;-77
2021/12/12 15:24:08;;;;;;;16.20;10.60;;;3.10;99.90;;;;;;5135189;27;20432;-77
2021/12/12 15:26:40;;;;;;;18.77;12.90;;;3.10;99.90;;;;;;5152026;27;20201;-77
2021/12/12 15:29:09;;;;;;;60.77;32.13;;;3.10;99.90;;;;;;5154618;27;20339;-78
2021/12/12 15:31:47;;;;;;;181.70;72.67;;;3.10;99.90;;;;;;5154153;27;20456;-77
2021/12/12 15:34:17;;;;;;;55.03;27.93;;;3.00;99.90;;;;;;5152838;27;20671;-78
2021/12/12 15:36:50;;;;;;;50.07;22.33;;;3.00;99.90;;;;;;5154305;27;20424;-77
2021/12/12 15:39:22;;;;;;;15.57;9.03;;;3.00;99.90;;;;;;5158366;27;20211;-77
2021/12/12 15:41:54;;;;;;;11.90;7.73;;;3.00;99.90;;;;;;5160985;27;20411;-78
2021/12/12 15:44:31;;;;;;;12.40;7.27;;;2.90;99.90;;;;;;5161518;27;20419;-78
2021/12/12 15:46:59;;;;;;;17.07;10.03;;;2.90;99.90;;;;;;5154179;27;20457;-77
2021/12/12 15:49:32;;;;;;;17.20;10.00;;;2.90;99.90;;;;;;5154491;27;20399;-77
2021/12/12 15:52:24;;;;;;;11.13;6.77;;;2.90;99.90;;;;;;5155442;27;20159;-77
2021/12/12 15:54:51;;;;;;;15.40;8.73;;;2.90;99.90;;;;;;5154598;27;20440;-77
2021/12/12 15:57:22;;;;;;;39.70;18.57;;;2.90;99.90;;;;;;5155375;27;20403;-77
2021/12/12 15:59:53;;;;;;;9.17;6.57;;;2.80;99.90;;;;;;5155901;27;20820;-77
2021/12/12 16:02:30;;;;;;;9.20;5.20;;;2.80;99.90;;;;;;5154166;27;20460;-77
2021/12/12 16:05:07;;;;;;;7.10;5.53;;;2.80;99.90;;;;;;5155422;27;20427;-77
2021/12/12 16:07:39;;;;;;;7.03;5.03;;;2.80;99.90;;;;;;5143396;27;20400;-77
2021/12/12 16:10:12;;;;;;;6.57;5.00;;;2.70;99.90;;;;;;5113959;28;20429;-77
2021/12/12 16:12:40;;;;;;;7.60;5.37;;;2.80;99.90;;;;;;5113270;28;20830;-77
2021/12/12 16:15:07;;;;;;;8.93;5.17;;;2.70;99.90;;;;;;5114098;28;20938;-77
2021/12/12 16:17:37;;;;;;;13.30;8.43;;;2.80;99.90;;;;;;5118177;27;20417;-77
2021/12/12 16:20:13;;;;;;;8.23;6.27;;;2.80;99.90;;;;;;5152640;27;20411;-78
2021/12/12 16:22:48;;;;;;;9.53;6.37;;;2.80;99.90;;;;;;5152862;27;20399;-78
2021/12/12 16:25:17;;;;;;;12.73;8.17;;;2.80;99.90;;;;;;5134292;27;20435;-77
2021/12/12 16:27:46;;;;;;;12.53;8.00;;;3.50;99.90;;;;;;5135159;27;20416;-77
2021/12/12 16:30:25;;;;;;;9.07;6.27;;;2.90;99.90;;;;;;5141763;27;20174;-78
2021/12/12 16:32:55;;;;;;;9.17;5.20;;;2.80;99.90;;;;;;5117264;28;20413;-78
2021/12/12 16:35:22;;;;;;;8.90;6.17;;;2.80;99.90;;;;;;5127836;27;20862;-76
2021/12/12 16:37:53;;;;;;;14.47;9.77;;;2.80;99.90;;;;;;5118682;28;20410;-78
2021/12/12 16:40:33;;;;;;;15.63;9.83;;;2.90;99.90;;;;;;5118516;28;20410;-77
2021/12/12 16:43:08;;;;;;;12.73;9.10;;;2.70;99.90;;;;;;5122256;28;20152;-78
2021/12/12 16:45:42;;;;;;;26.10;19.33;;;2.70;99.90;;;;;;5135540;27;20458;-78
2021/12/12 16:48:22;;;;;;;15.50;9.70;;;2.70;99.90;;;;;;5140392;27;20420;-77
2021/12/12 16:50:53;;;;;;;11.87;8.00;;;2.70;99.90;;;;;;5137062;27;20171;-77
2021/12/12 16:53:32;;;;;;;11.17;7.70;;;2.70;99.90;;;;;;5138376;27;20412;-77
2021/12/12 16:56:00;;;;;;;9.00;7.00;;;2.70;99.90;;;;;;5137405;27;20878;-78
2021/12/12 16:58:31;;;;;;;12.40;8.07;;;2.70;99.90;;;;;;5138489;27;20894;-77
2021/12/12 17:01:03;;;;;;;12.00;8.43;;;2.70;99.90;;;;;;5138098;27;20414;-77
2021/12/12 17:03:41;;;;;;;13.27;8.97;;;2.70;99.90;;;;;;5138326;27;20401;-77
2021/12/12 17:06:15;;;;;;;20.07;12.50;;;2.70;99.90;;;;;;5136644;27;20464;-77
2021/12/12 17:11:26;;;;;;;14.60;8.80;;;2.70;99.90;;;;;;5139102;27;20155;-78
2021/12/12 17:13:53;;;;;;;13.13;8.37;;;2.70;99.90;;;;;;5136714;27;20208;-78
2021/12/12 17:16:25;;;;;;;11.70;7.40;;;2.60;99.90;;;;;;5137264;27;20408;-78
2021/12/12 17:18:52;;;;;;;11.73;7.27;;;2.60;99.90;;;;;;5138599;27;20628;-78
2021/12/12 17:21:19;;;;;;;10.93;7.70;;;2.60;99.90;;;;;;5138325;27;20404;-78
2021/12/12 17:23:51;;;;;;;21.93;15.90;;;2.60;99.90;;;;;;5138509;27;20404;-78
2021/12/12 17:26:28;;;;;;;88.60;37.40;;;2.60;99.90;;;;;;5139115;27;20432;-78
2021/12/12 17:28:57;;;;;;;13.07;9.50;;;2.60;99.90;;;;;;5137823;27;20418;-78
2021/12/12 17:31:34;;;;;;;16.07;8.17;;;2.60;99.90;;;;;;5137746;27;20433;-78
2021/12/12 17:34:10;;;;;;;38.20;19.93;;;2.70;99.90;;;;;;5139309;27;20238;-78
2021/12/12 17:36:38;;;;;;;138.47;60.40;;;2.70;99.90;;;;;;5147595;27;20409;-78
2021/12/12 17:39:11;;;;;;;20.63;10.80;;;2.60;99.90;;;;;;5151918;27;20411;-78
2021/12/12 17:41:40;;;;;;;29.23;15.07;;;2.60;99.90;;;;;;5140643;27;20156;-78
2021/12/12 17:44:32;;;;;;;37.20;20.63;;;2.70;99.90;;;;;;5139365;27;20435;-78
2021/12/12 17:47:05;;;;;;;38.50;23.77;;;2.60;99.90;;;;;;5138586;27;20463;-78
2021/12/12 17:49:30;;;;;;;42.07;25.30;;;2.70;99.90;;;;;;5138602;27;20171;-78
2021/12/12 17:51:59;;;;;;;21.53;14.27;;;2.70;99.90;;;;;;5139053;27;20461;-78
2021/12/12 17:54:44;;;;;;;35.90;17.20;;;2.60;99.90;;;;;;5139036;27;20195;-78
2021/12/12 17:57:17;;;;;;;33.03;16.63;;;2.50;99.90;;;;;;5138449;27;20396;-78
2021/12/12 18:00:05;;;;;;;58.50;25.67;;;2.60;99.90;;;;;;5137997;27;20401;-78
2021/12/12 18:02:34;;;;;;;26.40;14.40;;;2.60;99.90;;;;;;5137913;27;20411;-79
2021/12/12 18:05:12;;;;;;;116.07;50.93;;;2.60;99.90;;;;;;5138604;27;20424;-78
2021/12/12 18:08:02;;;;;;;144.17;60.30;;;2.60;99.90;;;;;;5139785;27;20434;-78
2021/12/12 18:10:44;;;;;;;50.53;22.10;;;2.60;99.90;;;;;;5137386;27;20515;-78
2021/12/12 18:13:18;;;;;;;61.80;23.67;;;2.70;99.90;;;;;;5142372;27;20399;-79
2021/12/12 18:15:51;;;;;;;84.07;29.60;;;2.80;99.90;;;;;;5139421;27;20424;-79
2021/12/12 18:18:54;;;;;;;63.20;23.47;;;2.80;99.90;;;;;;5140955;27;20401;-78
2021/12/12 18:21:24;;;;;;;52.13;19.50;;;2.90;99.90;;;;;;5137891;27;20503;-78
2021/12/12 18:23:52;;;;;;;130.43;41.67;;;2.90;99.90;;;;;;5138066;27;20423;-79
2021/12/12 18:26:24;;;;;;;79.43;27.87;;;3.00;99.90;;;;;;5138107;27;20497;-78
2021/12/12 18:28:57;;;;;;;101.10;34.70;;;3.10;99.90;;;;;;5138460;27;20893;-79
2021/12/12 18:31:28;;;;;;;84.90;31.87;;;3.00;99.90;;;;;;5138575;27;20400;-77
2021/12/12 18:33:59;;;;;;;32.70;12.67;;;3.20;99.90;;;;;;5136365;27;20408;-78
2021/12/12 18:36:36;;;;;;;85.07;31.17;;;3.30;99.90;;;;;;5137315;27;20795;-78
2021/12/12 18:39:07;;;;;;;41.93;16.83;;;3.30;99.90;;;;;;5137300;27;20424;-79
2021/12/12 18:41:41;;;;;;;78.93;32.43;;;3.40;99.90;;;;;;5138238;27;20503;-79
2021/12/12 18:44:08;;;;;;;152.53;59.87;;;3.50;99.90;;;;;;5140746;27;20850;-79
2021/12/12 18:46:37;;;;;;;25.03;13.13;;;3.60;99.90;;;;;;5144634;27;20440;-79
2021/12/12 18:49:14;;;;;;;95.57;56.97;;;3.60;99.90;;;;;;5137983;27;20411;-79
2021/12/12 18:51:50;;;;;;;43.60;21.60;;;3.60;99.90;;;;;;5139671;27;20416;-80
2021/12/12 18:54:24;;;;;;;21.93;12.70;;;3.60;99.90;;;;;;5139585;27;20443;-79
2021/12/12 18:56:53;;;;;;;36.20;15.83;;;3.70;99.90;;;;;;5138513;27;20484;-81
2021/12/12 18:59:23;;;;;;;12.03;8.50;;;3.70;99.90;;;;;;5137406;27;20901;-79
2021/12/12 19:02:04;;;;;;;10.63;5.97;;;3.90;99.90;;;;;;5141004;27;20412;-79
2021/12/12 19:04:46;;;;;;;11.57;7.63;;;3.90;99.90;;;;;;5139793;27;20435;-80
2021/12/12 19:07:12;;;;;;;8.17;6.33;;;4.00;99.90;;;;;;5141945;27;20433;-79
2021/12/12 19:09:47;;;;;;;9.30;6.00;;;3.90;99.90;;;;;;5140294;27;20424;-79
2021/12/12 19:12:28;;;;;;;8.23;5.53;;;3.90;99.90;;;;;;5140111;27;20240;-80
2021/12/12 19:14:55;;;;;;;13.63;9.47;;;3.80;99.90;;;;;;5140808;27;20428;-79
2021/12/12 19:17:22;;;;;;;10.60;6.73;;;3.70;99.90;;;;;;5140429;27;20416;-80
2021/12/12 19:19:53;;;;;;;11.73;7.60;;;3.70;99.90;;;;;;5140070;27;20454;-80
2021/12/12 19:22:31;;;;;;;9.17;5.73;;;3.80;99.90;;;;;;5140317;27;20420;-79
2021/12/12 19:24:59;;;;;;;7.20;4.40;;;3.70;99.90;;;;;;5140277;27;20471;-79
2021/12/12 19:27:30;;;;;;;6.33;4.83;;;3.70;99.90;;;;;;5139987;27;20456;-79
2021/12/12 19:30:03;;;;;;;10.80;6.63;;;3.60;99.90;;;;;;5140389;27;20412;-80
2021/12/12 19:32:32;;;;;;;11.37;5.80;;;3.60;99.90;;;;;;5140210;27;20409;-79
2021/12/12 19:35:12;;;;;;;8.07;5.10;;;3.50;99.90;;;;;;5139916;27;20435;-79
2021/12/12 19:37:47;;;;;;;8.33;5.40;;;3.50;99.90;;;;;;5140188;27;20755;-79
2021/12/12 19:40:21;;;;;;;5.67;3.37;;;3.40;99.90;;;;;;5139812;27;20489;-79
2021/12/12 19:42:49;;;;;;;7.30;4.70;;;3.40;99.90;;;;;;5141036;27;20480;-80
2021/12/12 19:45:21;;;;;;;5.40;3.90;;;3.30;99.90;;;;;;5139921;27;20428;-80
2021/12/12 19:47:49;;;;;;;17.53;12.60;;;3.40;99.90;;;;;;5141632;27;20411;-80
2021/12/12 19:50:25;;;;;;;21.23;14.37;;;3.20;99.90;;;;;;5141887;27;20408;-80
2021/12/12 19:52:52;;;;;;;58.37;25.83;;;3.30;99.90;;;;;;5139569;27;20412;-79
2021/12/12 19:55:24;;;;;;;61.63;29.43;;;3.20;99.90;;;;;;5141027;27;20437;-80
2021/12/12 19:57:54;;;;;;;27.03;14.03;;;3.20;99.90;;;;;;5140108;27;20412;-80
2021/12/12 20:00:34;;;;;;;10.23;6.40;;;3.20;99.90;;;;;;5141359;27;21032;-79
2021/12/12 20:03:13;;;;;;;28.40;16.17;;;3.20;99.90;;;;;;5141816;27;20403;-80
2021/12/12 20:06:00;;;;;;;38.73;19.30;;;3.10;99.90;;;;;;5139778;27;20463;-80
2021/12/12 20:08:30;;;;;;;12.57;7.53;;;3.00;99.90;;;;;;5139851;27;20959;-82
2021/12/12 20:11:01;;;;;;;42.00;16.60;;;3.00;99.90;;;;;;5140304;28;20750;-79
2021/12/12 20:13:32;;;;;;;16.27;9.20;;;3.00;99.90;;;;;;5139232;28;20401;-80
2021/12/12 20:15:59;;;;;;;10.60;7.27;;;2.90;99.90;;;;;;5137708;28;20428;-79
2021/12/12 20:18:27;;;;;;;9.70;6.33;;;2.90;99.90;;;;;;5138166;28;20412;-80
2021/12/12 20:20:55;;;;;;;9.33;6.33;;;2.90;99.90;;;;;;5137642;27;20985;-79
2021/12/12 20:23:28;;;;;;;9.30;6.03;;;2.70;99.90;;;;;;5137414;28;20918;-80
2021/12/12 20:26:03;;;;;;;9.53;6.53;;;2.70;99.90;;;;;;5137466;28;20516;-79
2021/12/12 20:28:53;;;;;;;8.87;6.57;;;2.80;99.90;;;;;;5138828;28;20403;-79
2021/12/12 20:31:25;;;;;;;12.57;8.60;;;2.80;99.90;;;;;;5137459;27;20419;-79
2021/12/12 20:33:55;;;;;;;10.17;7.50;;;2.80;99.90;;;;;;5137719;28;20775;-79
2021/12/12 20:36:27;;;;;;;7.53;5.33;;;2.80;99.90;;;;;;5137559;28;20932;-80
2021/12/12 20:39:20;;;;;;;12.97;7.57;;;2.80;99.90;;;;;;5138707;28;20389;-80
2021/12/12 20:41:57;;;;;;;8.17;5.43;;;2.80;99.90;;;;;;5137528;28;20416;-80
2021/12/12 20:44:31;;;;;;;9.93;6.53;;;2.70;99.90;;;;;;5137618;28;20535;-80
2021/12/12 20:47:04;;;;;;;7.57;5.90;;;2.80;99.90;;;;;;5139249;28;20448;-79
2021/12/12 20:49:35;;;;;;;7.17;4.80;;;2.70;99.90;;;;;;5140550;28;20433;-80
2021/12/12 20:52:10;;;;;;;5.33;4.23;;;2.80;99.90;;;;;;5141267;27;20457;-79
2021/12/12 20:54:39;;;;;;;6.30;4.33;;;2.80;99.90;;;;;;5138957;28;20427;-80
2021/12/12 20:57:16;;;;;;;7.77;5.07;;;2.90;99.90;;;;;;5137146;28;20419;-79
2021/12/12 20:59:47;;;;;;;4.43;3.20;;;2.80;99.90;;;;;;5138351;28;20415;-79
2021/12/12 21:02:20;;;;;;;8.40;5.33;;;2.80;99.90;;;;;;5138440;28;20389;-79
2021/12/12 21:04:55;;;;;;;6.17;4.20;;;2.80;99.90;;;;;;5136870;27;20505;-79
2021/12/12 21:07:24;;;;;;;6.57;3.57;;;2.80;99.90;;;;;;5136517;28;20463;-79
2021/12/12 21:09:56;;;;;;;7.27;4.83;;;2.80;99.90;;;;;;5138288;27;20878;-79
2021/12/12 21:12:27;;;;;;;6.90;3.97;;;2.80;99.90;;;;;;5137372;27;20388;-79
2021/12/12 21:15:00;;;;;;;4.20;2.77;;;2.80;99.90;;;;;;5140737;27;20515;-80
2021/12/12 21:17:29;;;;;;;5.83;3.43;;;2.80;99.90;;;;;;5140959;27;20389;-79
2021/12/12 21:19:59;;;;;;;3.87;3.03;;;2.80;99.90;;;;;;5140246;27;20419;-79
2021/12/12 21:22:44;;;;;;;4.53;3.03;;;2.80;99.90;;;;;;5139830;27;20392;-79
2021/12/12 21:25:25;;;;;;;16.87;10.13;;;2.80;99.90;;;;;;5143973;27;20478;-79
2021/12/12 21:28:14;;;;;;;10.37;5.37;;;2.70;99.90;;;;;;5142681;27;20393;-79
2021/12/12 21:30:56;;;;;;;10.93;6.10;;;2.60;99.90;;;;;;5140544;27;20419;-79
2021/12/12 21:33:55;;;;;;;9.77;6.37;;;2.60;99.90;;;;;;5142636;27;20401;-79
2021/12/12 21:36:46;;;;;;;9.57;6.40;;;2.60;99.90;;;;;;5142021;27;20488;-79
2021/12/12 21:39:14;;;;;;;7.27;4.40;;;2.60;99.90;;;;;;5142762;27;20969;-80
2021/12/12 21:42:21;;;;;;;6.40;4.27;;;2.60;99.90;;;;;;5142651;27;20408;-79
2021/12/12 21:45:10;;;;;;;7.03;4.13;;;2.60;99.90;;;;;;5130405;27;20508;-79
2021/12/12 21:47:35;;;;;;;4.40;3.60;;;2.60;99.90;;;;;;5140971;27;20420;-79
2021/12/12 21:50:15;;;;;;;5.00;3.83;;;2.60;99.90;;;;;;5142580;27;20496;-79
2021/12/12 21:52:58;;;;;;;6.50;4.07;;;2.70;99.90;;;;;;5141148;27;20174;-79